Terminal Aerodrome Forecast
Issued by NWS

Home | Current Version | Previous Version | Text Only | Print | Product List | Glossary On
Versions: 1 2 3 4 5 6 7 8 9 10 11 12 13 14
000
FTUS44 KEPZ 172320
TAFDMN
TAF
KDMN 172320Z 1800/1824 25015G27KT P6SM SCT140 BKN250
     FM180200 28012KT P6SM SCT120 BKN250
     FM181300 33013KT P6SM FEW140 SCT250
     FM181800 07012KT P6SM FEW140 SCT250=

USA.gov is the U.S. government's official web portal to all federal, state and local government web resources and services.